CheckWX is a tool to help pilots better visualize weather data.  It is not intended as a substitute for an official pre-flight weather briefing.

03:04:42 UTC

KSFF TAF
Felts Field Airport
Spokane, Washington, USA
KSFF 122339Z 1300/1324 VRB04KT 6SM -RA BR OVC019 FM130400 21007G13KT 4SM -RA BR OVC012 FM130800 23012G21KT 4SM BR OVC007 FM131400 23009KT 4SM BR OVC007 FM131800 22008KT P6SM OVC015

Dec-13@
00:00 UTC

Dec-13 @ 00:00 UTC

Dec-13@
04:00 UTC

Dec-13 @ 04:00 UTC

KSFF 122339Z 1300/1324 VRB04KT 6SM -RA BR OVC019
Wind
  • Variable at 4 KTS
Conditions
Light Rain, Mist
Cloud Levels
  • Overcast at 1,900' AGL

Dec-13@
04:00 UTC

Dec-13 @ 04:00 UTC

Dec-13@
08:00 UTC

Dec-13 @ 08:00 UTC

FM130400 21007G13KT 4SM -RA BR OVC012

From

From Standard forecast or significant change

Wind
  • 210° at 7 KTS
  • {Gusting to 13 KTS
Conditions
Light Rain, Mist
Cloud Levels
  • Overcast at 1,200' AGL

Dec-13@
08:00 UTC

Dec-13 @ 08:00 UTC

Dec-13@
14:00 UTC

Dec-13 @ 14:00 UTC

FM130800 23012G21KT 4SM BR OVC007

From

From Standard forecast or significant change

Wind
  • 230° at 12 KTS
  • {Gusting to 21 KTS
Conditions
Mist
Cloud Levels
  • Overcast at 700' AGL

Dec-13@
14:00 UTC

Dec-13 @ 14:00 UTC

Dec-13@
18:00 UTC

Dec-13 @ 18:00 UTC

FM131400 23009KT 4SM BR OVC007

From

From Standard forecast or significant change

Wind
  • 230° at 9 KTS
Conditions
Mist
Cloud Levels
  • Overcast at 700' AGL

Dec-13@
18:00 UTC

Dec-13 @ 18:00 UTC

Dec-14@
00:00 UTC

Dec-14 @ 00:00 UTC

FM131800 22008KT P6SM OVC015

From

From Standard forecast or significant change

Wind
  • 220° at 8 KTS
Cloud Levels
  • Overcast at 1,500' AGL